sensor_id;sensor_type;location;lat;lon;timestamp;temperature;humidity
67598;DHT22;62026;39.230;9.122;2023-03-04T00:02:03;11.10;70.60
67598;DHT22;62026;39.230;9.122;2023-03-04T00:04:30;11.00;70.70
67598;DHT22;62026;39.230;9.122;2023-03-04T00:06:56;11.00;71.10
67598;DHT22;62026;39.230;9.122;2023-03-04T00:09:22;10.90;70.90
67598;DHT22;62026;39.230;9.122;2023-03-04T00:11:48;10.80;70.50
67598;DHT22;62026;39.230;9.122;2023-03-04T00:14:14;10.80;70.20
67598;DHT22;62026;39.230;9.122;2023-03-04T00:16:40;10.70;70.00
67598;DHT22;62026;39.230;9.122;2023-03-04T00:19:06;10.60;69.80
67598;DHT22;62026;39.230;9.122;2023-03-04T00:21:32;10.60;69.80
67598;DHT22;62026;39.230;9.122;2023-03-04T00:23:58;10.60;70.10
67598;DHT22;62026;39.230;9.122;2023-03-04T00:26:24;10.60;70.30
67598;DHT22;62026;39.230;9.122;2023-03-04T00:28:50;11.00;70.40
67598;DHT22;62026;39.230;9.122;2023-03-04T00:31:16;11.20;69.70
67598;DHT22;62026;39.230;9.122;2023-03-04T00:33:42;11.30;69.30
67598;DHT22;62026;39.230;9.122;2023-03-04T00:36:10;11.30;69.00
67598;DHT22;62026;39.230;9.122;2023-03-04T00:38:36;11.20;68.90
67598;DHT22;62026;39.230;9.122;2023-03-04T00:41:03;11.30;68.70
67598;DHT22;62026;39.230;9.122;2023-03-04T00:43:29;11.40;68.40
67598;DHT22;62026;39.230;9.122;2023-03-04T00:45:56;11.40;68.20
67598;DHT22;62026;39.230;9.122;2023-03-04T00:48:23;11.40;68.20
67598;DHT22;62026;39.230;9.122;2023-03-04T00:50:49;11.50;68.40
67598;DHT22;62026;39.230;9.122;2023-03-04T00:53:18;11.40;68.50
67598;DHT22;62026;39.230;9.122;2023-03-04T00:55:44;11.40;68.60
67598;DHT22;62026;39.230;9.122;2023-03-04T00:58:10;11.50;68.60
67598;DHT22;62026;39.230;9.122;2023-03-04T01:00:36;11.50;68.60
67598;DHT22;62026;39.230;9.122;2023-03-04T01:03:02;11.50;68.80
67598;DHT22;62026;39.230;9.122;2023-03-04T01:05:28;11.40;68.80
67598;DHT22;62026;39.230;9.122;2023-03-04T01:07:54;11.40;68.90
67598;DHT22;62026;39.230;9.122;2023-03-04T01:10:20;11.40;68.80
67598;DHT22;62026;39.230;9.122;2023-03-04T01:12:46;11.40;68.90
67598;DHT22;62026;39.230;9.122;2023-03-04T01:15:14;11.40;69.00
67598;DHT22;62026;39.230;9.122;2023-03-04T01:17:40;11.40;69.10
67598;DHT22;62026;39.230;9.122;2023-03-04T01:20:07;11.40;69.00
67598;DHT22;62026;39.230;9.122;2023-03-04T01:22:35;11.40;68.90
67598;DHT22;62026;39.230;9.122;2023-03-04T01:25:01;11.40;68.90
67598;DHT22;62026;39.230;9.122;2023-03-04T01:27:27;11.40;68.90
67598;DHT22;62026;39.230;9.122;2023-03-04T01:29:53;11.30;69.10
67598;DHT22;62026;39.230;9.122;2023-03-04T01:32:19;11.40;69.00
67598;DHT22;62026;39.230;9.122;2023-03-04T01:34:46;11.40;69.10
67598;DHT22;62026;39.230;9.122;2023-03-04T01:37:12;11.40;69.20
67598;DHT22;62026;39.230;9.122;2023-03-04T01:39:39;11.30;69.20
67598;DHT22;62026;39.230;9.122;2023-03-04T01:42:05;11.30;69.20
67598;DHT22;62026;39.230;9.122;2023-03-04T01:44:43;11.30;69.00
67598;DHT22;62026;39.230;9.122;2023-03-04T01:47:10;11.30;68.90
67598;DHT22;62026;39.230;9.122;2023-03-04T01:49:36;11.30;68.90
67598;DHT22;62026;39.230;9.122;2023-03-04T01:52:02;11.30;68.70
67598;DHT22;62026;39.230;9.122;2023-03-04T01:54:28;11.30;68.50
67598;DHT22;62026;39.230;9.122;2023-03-04T01:56:55;11.30;68.40
67598;DHT22;62026;39.230;9.122;2023-03-04T01:59:28;11.30;68.40
67598;DHT22;62026;39.230;9.122;2023-03-04T02:01:59;11.20;68.40
67598;DHT22;62026;39.230;9.122;2023-03-04T02:04:31;11.20;68.30
67598;DHT22;62026;39.230;9.122;2023-03-04T02:06:58;11.30;68.20
67598;DHT22;62026;39.230;9.122;2023-03-04T02:09:28;11.20;68.00
67598;DHT22;62026;39.230;9.122;2023-03-04T02:11:55;11.10;68.10
67598;DHT22;62026;39.230;9.122;2023-03-04T02:14:22;11.20;68.30
67598;DHT22;62026;39.230;9.122;2023-03-04T02:16:49;11.20;68.20
67598;DHT22;62026;39.230;9.122;2023-03-04T02:21:57;11.20;68.20
67598;DHT22;62026;39.230;9.122;2023-03-04T02:27:12;11.20;67.90
67598;DHT22;62026;39.230;9.122;2023-03-04T02:29:38;11.20;67.80
67598;DHT22;62026;39.230;9.122;2023-03-04T02:32:05;11.10;67.90
67598;DHT22;62026;39.230;9.122;2023-03-04T02:34:33;11.10;67.70
67598;DHT22;62026;39.230;9.122;2023-03-04T02:37:01;11.10;67.90
67598;DHT22;62026;39.230;9.122;2023-03-04T02:39:33;11.10;67.60
67598;DHT22;62026;39.230;9.122;2023-03-04T02:42:02;11.10;67.80
67598;DHT22;62026;39.230;9.122;2023-03-04T02:44:33;11.10;67.90
67598;DHT22;62026;39.230;9.122;2023-03-04T02:47:02;11.10;67.80
67598;DHT22;62026;39.230;9.122;2023-03-04T02:49:32;11.00;68.10
67598;DHT22;62026;39.230;9.122;2023-03-04T02:52:12;11.00;68.20
67598;DHT22;62026;39.230;9.122;2023-03-04T02:54:42;11.00;68.30
67598;DHT22;62026;39.230;9.122;2023-03-04T02:57:11;11.00;68.40
67598;DHT22;62026;39.230;9.122;2023-03-04T02:59:41;11.00;68.70
67598;DHT22;62026;39.230;9.122;2023-03-04T03:02:11;11.00;68.70
67598;DHT22;62026;39.230;9.122;2023-03-04T03:04:38;11.00;69.00
67598;DHT22;62026;39.230;9.122;2023-03-04T03:07:08;11.00;69.00
67598;DHT22;62026;39.230;9.122;2023-03-04T03:09:35;10.90;69.20
67598;DHT22;62026;39.230;9.122;2023-03-04T03:12:01;10.90;69.30
67598;DHT22;62026;39.230;9.122;2023-03-04T03:14:29;10.80;69.40
67598;DHT22;62026;39.230;9.122;2023-03-04T03:16:55;10.80;69.50
67598;DHT22;62026;39.230;9.122;2023-03-04T03:19:21;10.80;69.50
67598;DHT22;62026;39.230;9.122;2023-03-04T03:21:48;10.90;69.30
67598;DHT22;62026;39.230;9.122;2023-03-04T03:24:14;10.90;69.20
67598;DHT22;62026;39.230;9.122;2023-03-04T03:26:41;10.90;69.00
67598;DHT22;62026;39.230;9.122;2023-03-04T03:29:07;10.90;68.80
67598;DHT22;62026;39.230;9.122;2023-03-04T03:31:33;10.80;68.70
67598;DHT22;62026;39.230;9.122;2023-03-04T03:33:58;10.80;68.50
67598;DHT22;62026;39.230;9.122;2023-03-04T03:36:26;10.80;68.40
67598;DHT22;62026;39.230;9.122;2023-03-04T03:38:52;10.80;68.50
67598;DHT22;62026;39.230;9.122;2023-03-04T03:41:18;10.70;68.40
67598;DHT22;62026;39.230;9.122;2023-03-04T03:43:44;10.80;68.20
67598;DHT22;62026;39.230;9.122;2023-03-04T03:46:10;10.80;68.10
67598;DHT22;62026;39.230;9.122;2023-03-04T03:48:36;10.80;67.90
67598;DHT22;62026;39.230;9.122;2023-03-04T03:51:02;10.70;67.80
67598;DHT22;62026;39.230;9.122;2023-03-04T03:53:28;10.70;67.70
67598;DHT22;62026;39.230;9.122;2023-03-04T03:55:54;10.70;68.00
67598;DHT22;62026;39.230;9.122;2023-03-04T03:58:20;10.60;68.00
67598;DHT22;62026;39.230;9.122;2023-03-04T04:00:48;10.60;68.10
67598;DHT22;62026;39.230;9.122;2023-03-04T04:03:14;10.60;68.00
67598;DHT22;62026;39.230;9.122;2023-03-04T04:05:41;10.60;68.10
67598;DHT22;62026;39.230;9.122;2023-03-04T04:08:11;10.60;68.10
67598;DHT22;62026;39.230;9.122;2023-03-04T04:10:39;10.50;68.10
67598;DHT22;62026;39.230;9.122;2023-03-04T04:13:05;10.60;67.90
67598;DHT22;62026;39.230;9.122;2023-03-04T04:15:31;10.60;67.80
67598;DHT22;62026;39.230;9.122;2023-03-04T04:17:57;10.60;67.70
67598;DHT22;62026;39.230;9.122;2023-03-04T04:20:23;10.50;67.60
67598;DHT22;62026;39.230;9.122;2023-03-04T04:22:49;10.50;67.60
67598;DHT22;62026;39.230;9.122;2023-03-04T04:25:15;10.50;67.50
67598;DHT22;62026;39.230;9.122;2023-03-04T04:27:41;10.50;67.40
67598;DHT22;62026;39.230;9.122;2023-03-04T04:30:08;10.40;67.30
67598;DHT22;62026;39.230;9.122;2023-03-04T04:32:34;10.40;67.50
67598;DHT22;62026;39.230;9.122;2023-03-04T04:35:00;10.30;67.40
67598;DHT22;62026;39.230;9.122;2023-03-04T04:37:26;10.30;67.20
67598;DHT22;62026;39.230;9.122;2023-03-04T04:39:52;10.20;67.00
67598;DHT22;62026;39.230;9.122;2023-03-04T04:42:20;10.20;66.70
67598;DHT22;62026;39.230;9.122;2023-03-04T04:44:46;10.20;66.30
67598;DHT22;62026;39.230;9.122;2023-03-04T04:47:13;10.20;66.30
67598;DHT22;62026;39.230;9.122;2023-03-04T04:49:38;10.30;66.20
67598;DHT22;62026;39.230;9.122;2023-03-04T04:52:04;10.20;66.30
67598;DHT22;62026;39.230;9.122;2023-03-04T04:54:31;10.20;66.30
67598;DHT22;62026;39.230;9.122;2023-03-04T04:56:57;10.20;66.20
67598;DHT22;62026;39.230;9.122;2023-03-04T04:59:23;10.20;66.10
67598;DHT22;62026;39.230;9.122;2023-03-04T05:01:49;10.20;66.10
67598;DHT22;62026;39.230;9.122;2023-03-04T05:04:15;10.10;66.00
67598;DHT22;62026;39.230;9.122;2023-03-04T05:06:41;10.10;65.90
67598;DHT22;62026;39.230;9.122;2023-03-04T05:09:07;10.20;65.60
67598;DHT22;62026;39.230;9.122;2023-03-04T05:11:33;10.10;65.60
67598;DHT22;62026;39.230;9.122;2023-03-04T05:13:59;10.10;65.70
67598;DHT22;62026;39.230;9.122;2023-03-04T05:16:25;10.10;65.60
67598;DHT22;62026;39.230;9.122;2023-03-04T05:18:51;10.00;65.70
67598;DHT22;62026;39.230;9.122;2023-03-04T05:21:17;10.00;65.70
67598;DHT22;62026;39.230;9.122;2023-03-04T05:23:44;10.00;65.80
67598;DHT22;62026;39.230;9.122;2023-03-04T05:26:13;10.00;65.80
67598;DHT22;62026;39.230;9.122;2023-03-04T05:28:41;9.90;66.00
67598;DHT22;62026;39.230;9.122;2023-03-04T05:31:07;9.90;65.90
67598;DHT22;62026;39.230;9.122;2023-03-04T05:33:33;9.90;65.80
67598;DHT22;62026;39.230;9.122;2023-03-04T05:36:01;9.90;65.90
67598;DHT22;62026;39.230;9.122;2023-03-04T05:38:28;9.90;65.80
67598;DHT22;62026;39.230;9.122;2023-03-04T05:40:59;9.90;65.80
67598;DHT22;62026;39.230;9.122;2023-03-04T05:43:27;9.90;65.60
67598;DHT22;62026;39.230;9.122;2023-03-04T05:45:54;9.90;65.60
67598;DHT22;62026;39.230;9.122;2023-03-04T05:48:20;9.80;65.60
67598;DHT22;62026;39.230;9.122;2023-03-04T05:50:46;9.80;65.50
67598;DHT22;62026;39.230;9.122;2023-03-04T05:53:18;9.80;65.60
67598;DHT22;62026;39.230;9.122;2023-03-04T05:55:47;9.80;65.70
67598;DHT22;62026;39.230;9.122;2023-03-04T05:58:14;9.80;65.80
67598;DHT22;62026;39.230;9.122;2023-03-04T06:00:41;9.80;66.00
67598;DHT22;62026;39.230;9.122;2023-03-04T06:03:16;9.70;66.30
67598;DHT22;62026;39.230;9.122;2023-03-04T06:05:44;9.60;66.70
67598;DHT22;62026;39.230;9.122;2023-03-04T06:08:11;9.50;67.20
67598;DHT22;62026;39.230;9.122;2023-03-04T06:10:39;9.40;67.90
67598;DHT22;62026;39.230;9.122;2023-03-04T06:13:06;9.40;67.40
67598;DHT22;62026;39.230;9.122;2023-03-04T06:15:32;9.40;67.50
67598;DHT22;62026;39.230;9.122;2023-03-04T06:17:58;9.30;67.70
67598;DHT22;62026;39.230;9.122;2023-03-04T06:20:24;9.30;67.80
67598;DHT22;62026;39.230;9.122;2023-03-04T06:22:50;9.40;67.20
67598;DHT22;62026;39.230;9.122;2023-03-04T06:25:16;9.50;66.90
67598;DHT22;62026;39.230;9.122;2023-03-04T06:27:42;9.60;66.60
67598;DHT22;62026;39.230;9.122;2023-03-04T06:30:09;9.70;66.20
67598;DHT22;62026;39.230;9.122;2023-03-04T06:32:35;9.80;66.10
67598;DHT22;62026;39.230;9.122;2023-03-04T06:35:01;9.80;66.10
67598;DHT22;62026;39.230;9.122;2023-03-04T06:37:27;9.80;65.70
67598;DHT22;62026;39.230;9.122;2023-03-04T06:39:53;9.90;65.90
67598;DHT22;62026;39.230;9.122;2023-03-04T06:42:20;9.80;65.90
67598;DHT22;62026;39.230;9.122;2023-03-04T06:44:48;9.70;65.70
67598;DHT22;62026;39.230;9.122;2023-03-04T06:47:14;9.80;65.50
67598;DHT22;62026;39.230;9.122;2023-03-04T06:49:41;9.80;65.30
67598;DHT22;62026;39.230;9.122;2023-03-04T06:52:07;9.90;65.20
67598;DHT22;62026;39.230;9.122;2023-03-04T06:54:35;10.00;65.20
67598;DHT22;62026;39.230;9.122;2023-03-04T06:57:01;10.10;65.00
67598;DHT22;62026;39.230;9.122;2023-03-04T06:59:27;10.20;64.90
67598;DHT22;62026;39.230;9.122;2023-03-04T07:01:53;10.20;64.70
67598;DHT22;62026;39.230;9.122;2023-03-04T07:04:20;10.30;64.50
67598;DHT22;62026;39.230;9.122;2023-03-04T07:06:48;10.40;64.40
67598;DHT22;62026;39.230;9.122;2023-03-04T07:09:15;10.60;63.90
67598;DHT22;62026;39.230;9.122;2023-03-04T07:11:41;10.70;63.70
67598;DHT22;62026;39.230;9.122;2023-03-04T07:14:06;10.80;63.50
67598;DHT22;62026;39.230;9.122;2023-03-04T07:16:33;10.90;63.40
67598;DHT22;62026;39.230;9.122;2023-03-04T07:18:59;11.00;63.20
67598;DHT22;62026;39.230;9.122;2023-03-04T07:21:25;11.10;63.00
67598;DHT22;62026;39.230;9.122;2023-03-04T07:23:51;11.20;62.50
67598;DHT22;62026;39.230;9.122;2023-03-04T07:26:17;11.40;62.30
67598;DHT22;62026;39.230;9.122;2023-03-04T07:28:44;11.50;62.20
67598;DHT22;62026;39.230;9.122;2023-03-04T07:31:22;11.60;61.80
67598;DHT22;62026;39.230;9.122;2023-03-04T07:33:56;11.70;61.70
67598;DHT22;62026;39.230;9.122;2023-03-04T07:36:24;11.70;61.80
67598;DHT22;62026;39.230;9.122;2023-03-04T07:38:51;11.80;61.60
67598;DHT22;62026;39.230;9.122;2023-03-04T07:41:19;12.00;61.30
67598;DHT22;62026;39.230;9.122;2023-03-04T07:43:47;12.20;60.70
67598;DHT22;62026;39.230;9.122;2023-03-04T07:46:13;12.40;60.50
67598;DHT22;62026;39.230;9.122;2023-03-04T07:48:39;12.50;59.90
67598;DHT22;62026;39.230;9.122;2023-03-04T07:51:07;12.70;59.20
67598;DHT22;62026;39.230;9.122;2023-03-04T07:53:46;13.00;59.20
67598;DHT22;62026;39.230;9.122;2023-03-04T07:56:19;13.30;58.30
67598;DHT22;62026;39.230;9.122;2023-03-04T07:58:47;13.50;57.30
67598;DHT22;62026;39.230;9.122;2023-03-04T08:01:16;13.80;56.70
67598;DHT22;62026;39.230;9.122;2023-03-04T08:03:44;13.80;56.60
67598;DHT22;62026;39.230;9.122;2023-03-04T08:06:12;13.90;56.30
67598;DHT22;62026;39.230;9.122;2023-03-04T08:08:40;14.00;56.30
67598;DHT22;62026;39.230;9.122;2023-03-04T08:11:11;14.20;56.20
67598;DHT22;62026;39.230;9.122;2023-03-04T08:13:39;14.40;56.10
67598;DHT22;62026;39.230;9.122;2023-03-04T08:16:06;14.60;56.50
67598;DHT22;62026;39.230;9.122;2023-03-04T08:18:32;14.70;56.20
67598;DHT22;62026;39.230;9.122;2023-03-04T08:20:59;14.70;55.80
67598;DHT22;62026;39.230;9.122;2023-03-04T08:23:25;14.80;55.30
67598;DHT22;62026;39.230;9.122;2023-03-04T08:25:50;15.00;55.10
67598;DHT22;62026;39.230;9.122;2023-03-04T08:28:17;15.20;54.40
67598;DHT22;62026;39.230;9.122;2023-03-04T08:30:43;15.40;54.10
67598;DHT22;62026;39.230;9.122;2023-03-04T08:33:09;15.60;53.30
67598;DHT22;62026;39.230;9.122;2023-03-04T08:35:37;15.80;53.60
67598;DHT22;62026;39.230;9.122;2023-03-04T08:38:04;15.80;53.50
67598;DHT22;62026;39.230;9.122;2023-03-04T08:40:31;15.90;53.30
67598;DHT22;62026;39.230;9.122;2023-03-04T08:42:57;16.10;52.40
67598;DHT22;62026;39.230;9.122;2023-03-04T08:45:23;16.20;52.00
67598;DHT22;62026;39.230;9.122;2023-03-04T08:47:50;16.40;52.10
67598;DHT22;62026;39.230;9.122;2023-03-04T08:50:17;16.60;52.40
67598;DHT22;62026;39.230;9.122;2023-03-04T08:52:43;16.70;52.70
67598;DHT22;62026;39.230;9.122;2023-03-04T08:55:09;16.80;52.20
67598;DHT22;62026;39.230;9.122;2023-03-04T08:57:35;16.90;51.80
67598;DHT22;62026;39.230;9.122;2023-03-04T09:00:02;17.20;51.50
67598;DHT22;62026;39.230;9.122;2023-03-04T09:02:28;17.20;51.10
67598;DHT22;62026;39.230;9.122;2023-03-04T09:04:54;17.30;50.90
67598;DHT22;62026;39.230;9.122;2023-03-04T09:07:20;17.50;50.60
67598;DHT22;62026;39.230;9.122;2023-03-04T09:09:46;17.60;50.10
67598;DHT22;62026;39.230;9.122;2023-03-04T09:12:12;17.60;50.30
67598;DHT22;62026;39.230;9.122;2023-03-04T09:14:38;17.70;49.80
67598;DHT22;62026;39.230;9.122;2023-03-04T09:17:05;17.80;49.50
67598;DHT22;62026;39.230;9.122;2023-03-04T09:19:32;17.90;49.60
67598;DHT22;62026;39.230;9.122;2023-03-04T09:21:58;17.90;49.70
67598;DHT22;62026;39.230;9.122;2023-03-04T09:24:25;17.90;51.40
67598;DHT22;62026;39.230;9.122;2023-03-04T09:26:52;18.00;51.30
67598;DHT22;62026;39.230;9.122;2023-03-04T09:29:19;18.10;51.90
67598;DHT22;62026;39.230;9.122;2023-03-04T09:31:46;18.10;51.10
67598;DHT22;62026;39.230;9.122;2023-03-04T09:34:12;18.20;51.40
67598;DHT22;62026;39.230;9.122;2023-03-04T09:36:39;18.30;50.70
67598;DHT22;62026;39.230;9.122;2023-03-04T09:39:05;18.30;51.10
67598;DHT22;62026;39.230;9.122;2023-03-04T09:41:46;18.50;50.70
67598;DHT22;62026;39.230;9.122;2023-03-04T09:44:22;18.70;50.20
67598;DHT22;62026;39.230;9.122;2023-03-04T09:46:51;18.70;49.90
67598;DHT22;62026;39.230;9.122;2023-03-04T09:49:23;18.70;49.30
67598;DHT22;62026;39.230;9.122;2023-03-04T09:51:58;18.80;49.50
67598;DHT22;62026;39.230;9.122;2023-03-04T09:55:03;18.90;49.40
67598;DHT22;62026;39.230;9.122;2023-03-04T10:03:14;19.50;47.60
67598;DHT22;62026;39.230;9.122;2023-03-04T10:06:05;19.50;47.10
67598;DHT22;62026;39.230;9.122;2023-03-04T10:11:36;19.80;46.80
67598;DHT22;62026;39.230;9.122;2023-03-04T10:16:51;19.80;46.80
67598;DHT22;62026;39.230;9.122;2023-03-04T10:21:50;19.80;46.50
67598;DHT22;62026;39.230;9.122;2023-03-04T10:24:19;19.90;46.90
67598;DHT22;62026;39.230;9.122;2023-03-04T10:27:09;20.00;46.90
67598;DHT22;62026;39.230;9.122;2023-03-04T10:29:38;19.90;46.40
67598;DHT22;62026;39.230;9.122;2023-03-04T10:32:04;20.10;45.90
67598;DHT22;62026;39.230;9.122;2023-03-04T10:34:30;20.00;45.30
67598;DHT22;62026;39.230;9.122;2023-03-04T10:37:02;20.00;45.10
67598;DHT22;62026;39.230;9.122;2023-03-04T10:42:24;19.90;45.20
67598;DHT22;62026;39.230;9.122;2023-03-04T10:44:57;19.80;44.50
67598;DHT22;62026;39.230;9.122;2023-03-04T10:47:26;20.20;44.90
67598;DHT22;62026;39.230;9.122;2023-03-04T10:49:56;20.30;44.40
67598;DHT22;62026;39.230;9.122;2023-03-04T10:55:17;20.00;44.40
67598;DHT22;62026;39.230;9.122;2023-03-04T10:57:55;19.80;43.80
67598;DHT22;62026;39.230;9.122;2023-03-04T11:00:32;19.70;44.00
67598;DHT22;62026;39.230;9.122;2023-03-04T11:06:20;19.80;46.70
67598;DHT22;62026;39.230;9.122;2023-03-04T11:08:55;19.80;45.20
67598;DHT22;62026;39.230;9.122;2023-03-04T11:11:32;19.70;44.00
67598;DHT22;62026;39.230;9.122;2023-03-04T11:14:20;19.40;44.10
67598;DHT22;62026;39.230;9.122;2023-03-04T11:16:57;19.30;43.20
67598;DHT22;62026;39.230;9.122;2023-03-04T11:19:36;19.10;42.70
67598;DHT22;62026;39.230;9.122;2023-03-04T11:22:04;19.00;43.30
67598;DHT22;62026;39.230;9.122;2023-03-04T11:24:33;18.90;43.50
67598;DHT22;62026;39.230;9.122;2023-03-04T11:27:18;18.90;43.30
67598;DHT22;62026;39.230;9.122;2023-03-04T11:29:56;18.80;44.00
67598;DHT22;62026;39.230;9.122;2023-03-04T11:32:35;18.70;44.10
67598;DHT22;62026;39.230;9.122;2023-03-04T11:35:25;18.70;44.70
67598;DHT22;62026;39.230;9.122;2023-03-04T11:38:47;18.60;44.30
67598;DHT22;62026;39.230;9.122;2023-03-04T11:41:03;18.40;44.50
67598;DHT22;62026;39.230;9.122;2023-03-04T11:43:36;18.40;43.90
67598;DHT22;62026;39.230;9.122;2023-03-04T11:46:22;18.30;44.30
67598;DHT22;62026;39.230;9.122;2023-03-04T12:14:51;17.20;42.60
67598;DHT22;62026;39.230;9.122;2023-03-04T12:20:45;17.20;43.70
67598;DHT22;62026;39.230;9.122;2023-03-04T12:31:35;17.40;44.00
67598;DHT22;62026;39.230;9.122;2023-03-04T12:34:32;17.30;43.60
67598;DHT22;62026;39.230;9.122;2023-03-04T12:54:41;17.00;44.90
67598;DHT22;62026;39.230;9.122;2023-03-04T12:57:25;16.90;44.80
67598;DHT22;62026;39.230;9.122;2023-03-04T13:03:04;16.80;45.40
67598;DHT22;62026;39.230;9.122;2023-03-04T13:05:55;16.80;45.30
67598;DHT22;62026;39.230;9.122;2023-03-04T13:08:42;16.90;45.40
67598;DHT22;62026;39.230;9.122;2023-03-04T13:16:47;16.50;47.10
67598;DHT22;62026;39.230;9.122;2023-03-04T13:22:32;16.50;49.10
67598;DHT22;62026;39.230;9.122;2023-03-04T13:38:31;15.80;48.20
67598;DHT22;62026;39.230;9.122;2023-03-04T13:41:22;15.70;49.50
67598;DHT22;62026;39.230;9.122;2023-03-04T13:44:05;15.70;49.60
67598;DHT22;62026;39.230;9.122;2023-03-04T13:47:17;15.70;49.40
67598;DHT22;62026;39.230;9.122;2023-03-04T13:49:46;15.80;49.90
67598;DHT22;62026;39.230;9.122;2023-03-04T13:52:40;15.80;49.60
67598;DHT22;62026;39.230;9.122;2023-03-04T13:55:34;15.90;49.90
67598;DHT22;62026;39.230;9.122;2023-03-04T13:58:24;15.90;50.10
67598;DHT22;62026;39.230;9.122;2023-03-04T14:00:53;15.70;50.70
67598;DHT22;62026;39.230;9.122;2023-03-04T14:03:24;15.60;50.50
67598;DHT22;62026;39.230;9.122;2023-03-04T14:06:24;15.70;51.00
67598;DHT22;62026;39.230;9.122;2023-03-04T14:08:52;15.70;51.50
67598;DHT22;62026;39.230;9.122;2023-03-04T14:14:04;15.60;51.50
67598;DHT22;62026;39.230;9.122;2023-03-04T14:17:14;15.40;51.30
67598;DHT22;62026;39.230;9.122;2023-03-04T14:19:33;15.30;51.20
67598;DHT22;62026;39.230;9.122;2023-03-04T14:27:46;15.10;50.70
67598;DHT22;62026;39.230;9.122;2023-03-04T14:30:27;15.10;51.40
67598;DHT22;62026;39.230;9.122;2023-03-04T14:32:55;15.10;51.60
67598;DHT22;62026;39.230;9.122;2023-03-04T14:35:28;15.10;51.40
67598;DHT22;62026;39.230;9.122;2023-03-04T14:40:52;15.20;52.30
67598;DHT22;62026;39.230;9.122;2023-03-04T14:43:26;15.10;53.10
67598;DHT22;62026;39.230;9.122;2023-03-04T14:45:57;15.20;53.10
67598;DHT22;62026;39.230;9.122;2023-03-04T14:48:31;15.20;53.50
67598;DHT22;62026;39.230;9.122;2023-03-04T14:50:59;15.20;53.00
67598;DHT22;62026;39.230;9.122;2023-03-04T14:53:29;15.20;53.10
67598;DHT22;62026;39.230;9.122;2023-03-04T14:58:25;15.10;52.90
67598;DHT22;62026;39.230;9.122;2023-03-04T15:01:31;15.00;51.30
67598;DHT22;62026;39.230;9.122;2023-03-04T15:04:11;14.90;51.20
67598;DHT22;62026;39.230;9.122;2023-03-04T15:06:53;14.90;51.00
67598;DHT22;62026;39.230;9.122;2023-03-04T15:09:22;14.90;50.40
67598;DHT22;62026;39.230;9.122;2023-03-04T15:12:00;14.90;50.70
67598;DHT22;62026;39.230;9.122;2023-03-04T15:14:49;14.90;50.60
67598;DHT22;62026;39.230;9.122;2023-03-04T15:17:37;15.00;52.50
67598;DHT22;62026;39.230;9.122;2023-03-04T15:25:13;15.10;52.60
67598;DHT22;62026;39.230;9.122;2023-03-04T15:27:40;15.10;54.80
67598;DHT22;62026;39.230;9.122;2023-03-04T15:32:42;15.00;59.10
67598;DHT22;62026;39.230;9.122;2023-03-04T15:35:11;14.90;58.80
67598;DHT22;62026;39.230;9.122;2023-03-04T15:37:39;14.80;61.00
67598;DHT22;62026;39.230;9.122;2023-03-04T15:43:00;14.70;58.20
67598;DHT22;62026;39.230;9.122;2023-03-04T15:45:37;14.60;58.00
67598;DHT22;62026;39.230;9.122;2023-03-04T15:48:05;14.50;58.80
67598;DHT22;62026;39.230;9.122;2023-03-04T15:50:44;14.50;58.90
67598;DHT22;62026;39.230;9.122;2023-03-04T15:53:31;14.50;59.50
67598;DHT22;62026;39.230;9.122;2023-03-04T15:56:03;14.40;59.60
67598;DHT22;62026;39.230;9.122;2023-03-04T15:58:32;14.30;57.90
67598;DHT22;62026;39.230;9.122;2023-03-04T16:00:58;14.20;58.70
67598;DHT22;62026;39.230;9.122;2023-03-04T16:03:24;14.20;59.40
67598;DHT22;62026;39.230;9.122;2023-03-04T16:05:51;14.10;59.50
67598;DHT22;62026;39.230;9.122;2023-03-04T16:08:21;14.10;60.30
67598;DHT22;62026;39.230;9.122;2023-03-04T16:10:50;14.10;61.40
67598;DHT22;62026;39.230;9.122;2023-03-04T16:13:19;13.70;61.60
67598;DHT22;62026;39.230;9.122;2023-03-04T16:15:48;13.50;60.90
67598;DHT22;62026;39.230;9.122;2023-03-04T16:18:15;13.50;61.50
67598;DHT22;62026;39.230;9.122;2023-03-04T16:20:46;13.40;61.40
67598;DHT22;62026;39.230;9.122;2023-03-04T16:23:21;13.30;61.70
67598;DHT22;62026;39.230;9.122;2023-03-04T16:25:51;13.30;61.40
67598;DHT22;62026;39.230;9.122;2023-03-04T16:28:20;13.30;60.90
67598;DHT22;62026;39.230;9.122;2023-03-04T16:30:47;13.20;61.30
67598;DHT22;62026;39.230;9.122;2023-03-04T16:33:13;13.10;61.90
67598;DHT22;62026;39.230;9.122;2023-03-04T16:35:42;13.00;62.50
67598;DHT22;62026;39.230;9.122;2023-03-04T16:38:38;13.10;62.90
67598;DHT22;62026;39.230;9.122;2023-03-04T16:41:08;13.00;62.90
67598;DHT22;62026;39.230;9.122;2023-03-04T16:43:38;13.00;63.00
67598;DHT22;62026;39.230;9.122;2023-03-04T16:46:05;13.00;63.10
67598;DHT22;62026;39.230;9.122;2023-03-04T16:48:31;13.00;63.10
67598;DHT22;62026;39.230;9.122;2023-03-04T16:51:02;13.10;63.00
67598;DHT22;62026;39.230;9.122;2023-03-04T16:53:34;13.20;63.40
67598;DHT22;62026;39.230;9.122;2023-03-04T16:56:14;13.30;63.10
67598;DHT22;62026;39.230;9.122;2023-03-04T16:58:42;13.30;62.60
67598;DHT22;62026;39.230;9.122;2023-03-04T17:01:23;13.40;62.80
67598;DHT22;62026;39.230;9.122;2023-03-04T17:03:51;13.50;63.70
67598;DHT22;62026;39.230;9.122;2023-03-04T17:06:18;13.40;63.80
67598;DHT22;62026;39.230;9.122;2023-03-04T17:08:45;13.50;63.90
67598;DHT22;62026;39.230;9.122;2023-03-04T17:11:22;13.40;64.10
67598;DHT22;62026;39.230;9.122;2023-03-04T17:13:49;13.40;63.90
67598;DHT22;62026;39.230;9.122;2023-03-04T17:16:16;13.40;64.10
67598;DHT22;62026;39.230;9.122;2023-03-04T17:18:43;13.40;64.50
67598;DHT22;62026;39.230;9.122;2023-03-04T17:21:12;13.40;64.20
67598;DHT22;62026;39.230;9.122;2023-03-04T17:23:41;13.40;64.50
67598;DHT22;62026;39.230;9.122;2023-03-04T17:26:07;13.40;64.70
67598;DHT22;62026;39.230;9.122;2023-03-04T17:28:34;13.40;64.70
67598;DHT22;62026;39.230;9.122;2023-03-04T17:31:00;13.50;64.70
67598;DHT22;62026;39.230;9.122;2023-03-04T17:33:32;13.50;65.00
67598;DHT22;62026;39.230;9.122;2023-03-04T17:35:58;13.50;65.00
67598;DHT22;62026;39.230;9.122;2023-03-04T17:38:24;13.50;65.10
67598;DHT22;62026;39.230;9.122;2023-03-04T17:40:50;13.40;65.00
67598;DHT22;62026;39.230;9.122;2023-03-04T17:43:16;13.40;65.50
67598;DHT22;62026;39.230;9.122;2023-03-04T17:45:42;13.30;65.20
67598;DHT22;62026;39.230;9.122;2023-03-04T17:48:10;13.40;65.10
67598;DHT22;62026;39.230;9.122;2023-03-04T17:50:50;13.40;64.80
67598;DHT22;62026;39.230;9.122;2023-03-04T17:53:18;13.40;64.50
67598;DHT22;62026;39.230;9.122;2023-03-04T17:55:52;13.40;65.00
67598;DHT22;62026;39.230;9.122;2023-03-04T17:58:21;13.40;64.90
67598;DHT22;62026;39.230;9.122;2023-03-04T18:00:48;13.40;65.00
67598;DHT22;62026;39.230;9.122;2023-03-04T18:03:17;13.40;65.10